sensor_id;sensor_type;location;lat;lon;timestamp;pressure;altitude;pressure_sealevel;temperature;humidity
53300;BME280;39187;48.476;8.310;2024-03-02T00:00:21;90079.88;;;2.14;100.00
53300;BME280;39187;48.476;8.310;2024-03-02T00:02:48;90082.09;;;2.16;100.00
53300;BME280;39187;48.476;8.310;2024-03-02T00:05:17;90076.47;;;2.17;100.00
53300;BME280;39187;48.476;8.310;2024-03-02T00:07:45;90071.88;;;2.25;100.00
53300;BME280;39187;48.476;8.310;2024-03-02T00:10:14;90076.09;;;2.15;100.00
53300;BME280;39187;48.476;8.310;2024-03-02T00:12:41;90073.50;;;2.12;100.00
53300;BME280;39187;48.476;8.310;2024-03-02T00:15:45;90079.22;;;1.99;100.00
53300;BME280;39187;48.476;8.310;2024-03-02T00:18:46;90075.84;;;2.03;100.00
53300;BME280;39187;48.476;8.310;2024-03-02T00:21:06;90066.69;;;1.77;100.00
53300;BME280;39187;48.476;8.310;2024-03-02T00:23:35;90073.88;;;1.66;100.00
53300;BME280;39187;48.476;8.310;2024-03-02T00:26:01;90080.56;;;1.74;100.00
53300;BME280;39187;48.476;8.310;2024-03-02T00:28:36;90070.47;;;1.72;100.00
53300;BME280;39187;48.476;8.310;2024-03-02T00:31:07;90072.97;;;1.86;100.00
53300;BME280;39187;48.476;8.310;2024-03-02T00:33:47;90073.66;;;1.97;100.00
53300;BME280;39187;48.476;8.310;2024-03-02T00:36:22;90072.47;;;2.02;100.00
53300;BME280;39187;48.476;8.310;2024-03-02T00:38:52;90073.97;;;2.03;100.00
53300;BME280;39187;48.476;8.310;2024-03-02T00:41:31;90076.34;;;1.87;100.00
53300;BME280;39187;48.476;8.310;2024-03-02T00:44:02;90081.19;;;1.88;100.00
53300;BME280;39187;48.476;8.310;2024-03-02T00:46:39;90071.13;;;1.80;100.00
53300;BME280;39187;48.476;8.310;2024-03-02T00:49:25;90076.00;;;1.81;100.00
53300;BME280;39187;48.476;8.310;2024-03-02T00:51:53;90073.72;;;1.87;100.00
53300;BME280;39187;48.476;8.310;2024-03-02T00:54:25;90075.19;;;1.91;100.00
53300;BME280;39187;48.476;8.310;2024-03-02T00:56:52;90078.88;;;1.97;100.00
53300;BME280;39187;48.476;8.310;2024-03-02T00:59:20;90075.47;;;2.00;100.00
53300;BME280;39187;48.476;8.310;2024-03-02T01:01:48;90073.91;;;2.10;100.00
53300;BME280;39187;48.476;8.310;2024-03-02T01:04:15;90073.94;;;2.07;100.00
53300;BME280;39187;48.476;8.310;2024-03-02T01:06:42;90073.94;;;2.07;100.00
53300;BME280;39187;48.476;8.310;2024-03-02T01:09:07;90071.31;;;2.07;100.00
53300;BME280;39187;48.476;8.310;2024-03-02T01:11:33;90077.34;;;2.04;100.00
53300;BME280;39187;48.476;8.310;2024-03-02T01:13:59;90075.47;;;2.04;100.00
53300;BME280;39187;48.476;8.310;2024-03-02T01:16:24;90076.53;;;2.10;100.00
53300;BME280;39187;48.476;8.310;2024-03-02T01:18:50;90077.66;;;2.09;100.00
53300;BME280;39187;48.476;8.310;2024-03-02T01:21:15;90075.34;;;2.15;100.00
53300;BME280;39187;48.476;8.310;2024-03-02T01:23:41;90075.75;;;2.13;100.00
53300;BME280;39187;48.476;8.310;2024-03-02T01:26:06;90070.06;;;2.18;100.00
53300;BME280;39187;48.476;8.310;2024-03-02T01:28:32;90075.31;;;2.22;100.00
53300;BME280;39187;48.476;8.310;2024-03-02T01:30:58;90081.75;;;2.14;100.00
53300;BME280;39187;48.476;8.310;2024-03-02T01:33:24;90076.88;;;2.12;100.00
53300;BME280;39187;48.476;8.310;2024-03-02T01:35:49;90071.38;;;2.37;100.00
53300;BME280;39187;48.476;8.310;2024-03-02T01:38:15;90070.25;;;2.41;100.00
53300;BME280;39187;48.476;8.310;2024-03-02T01:40:42;90058.31;;;2.33;100.00
53300;BME280;39187;48.476;8.310;2024-03-02T01:43:07;90066.78;;;2.11;100.00
53300;BME280;39187;48.476;8.310;2024-03-02T01:45:34;90063.19;;;2.31;100.00
53300;BME280;39187;48.476;8.310;2024-03-02T01:48:01;90065.44;;;2.33;100.00
53300;BME280;39187;48.476;8.310;2024-03-02T01:50:32;90070.72;;;2.29;100.00
53300;BME280;39187;48.476;8.310;2024-03-02T01:52:59;90070.47;;;2.17;100.00
53300;BME280;39187;48.476;8.310;2024-03-02T01:55:24;90075.63;;;2.27;100.00
53300;BME280;39187;48.476;8.310;2024-03-02T01:57:51;90070.97;;;2.42;100.00
53300;BME280;39187;48.476;8.310;2024-03-02T02:00:18;90070.19;;;2.45;100.00
53300;BME280;39187;48.476;8.310;2024-03-02T02:02:45;90069.00;;;2.53;100.00
53300;BME280;39187;48.476;8.310;2024-03-02T02:05:11;90065.81;;;2.69;100.00
53300;BME280;39187;48.476;8.310;2024-03-02T02:07:36;90056.78;;;2.70;100.00
53300;BME280;39187;48.476;8.310;2024-03-02T02:10:02;90059.72;;;2.75;100.00
53300;BME280;39187;48.476;8.310;2024-03-02T02:12:28;90053.31;;;2.80;100.00
53300;BME280;39187;48.476;8.310;2024-03-02T02:14:53;90048.97;;;2.66;100.00
53300;BME280;39187;48.476;8.310;2024-03-02T02:17:19;90053.63;;;2.86;100.00
53300;BME280;39187;48.476;8.310;2024-03-02T02:19:45;90056.94;;;2.90;100.00
53300;BME280;39187;48.476;8.310;2024-03-02T02:22:11;90052.06;;;2.88;100.00
53300;BME280;39187;48.476;8.310;2024-03-02T02:24:42;90050.19;;;2.89;100.00
53300;BME280;39187;48.476;8.310;2024-03-02T02:27:08;90043.81;;;2.90;100.00
53300;BME280;39187;48.476;8.310;2024-03-02T02:29:34;90043.84;;;2.86;100.00
53300;BME280;39187;48.476;8.310;2024-03-02T02:32:00;90037.56;;;2.80;100.00
53300;BME280;39187;48.476;8.310;2024-03-02T02:34:25;90043.50;;;2.84;100.00
53300;BME280;39187;48.476;8.310;2024-03-02T02:36:51;90029.22;;;2.85;100.00
53300;BME280;39187;48.476;8.310;2024-03-02T02:39:18;90034.69;;;2.98;100.00
53300;BME280;39187;48.476;8.310;2024-03-02T02:41:45;90018.28;;;2.90;100.00
53300;BME280;39187;48.476;8.310;2024-03-02T02:44:11;90024.28;;;2.91;100.00
53300;BME280;39187;48.476;8.310;2024-03-02T02:46:40;90017.81;;;2.68;100.00
53300;BME280;39187;48.476;8.310;2024-03-02T02:49:06;90017.31;;;2.77;100.00
53300;BME280;39187;48.476;8.310;2024-03-02T02:51:32;90014.44;;;2.95;100.00
53300;BME280;39187;48.476;8.310;2024-03-02T02:53:57;90022.47;;;2.84;100.00
53300;BME280;39187;48.476;8.310;2024-03-02T02:56:23;90006.88;;;2.70;100.00
53300;BME280;39187;48.476;8.310;2024-03-02T02:58:48;90016.91;;;2.78;100.00
53300;BME280;39187;48.476;8.310;2024-03-02T03:01:15;90012.78;;;2.77;100.00
53300;BME280;39187;48.476;8.310;2024-03-02T03:03:43;90007.31;;;2.65;100.00
53300;BME280;39187;48.476;8.310;2024-03-02T03:06:09;90014.19;;;2.55;100.00
53300;BME280;39187;48.476;8.310;2024-03-02T03:08:35;90014.44;;;2.68;100.00
53300;BME280;39187;48.476;8.310;2024-03-02T03:11:00;90011.22;;;2.53;100.00
53300;BME280;39187;48.476;8.310;2024-03-02T03:13:26;90009.56;;;2.66;100.00
53300;BME280;39187;48.476;8.310;2024-03-02T03:15:51;90014.00;;;2.69;100.00
53300;BME280;39187;48.476;8.310;2024-03-02T03:18:18;90011.38;;;2.69;100.00
53300;BME280;39187;48.476;8.310;2024-03-02T03:20:44;90015.19;;;2.65;100.00
53300;BME280;39187;48.476;8.310;2024-03-02T03:23:09;90013.16;;;2.79;100.00
53300;BME280;39187;48.476;8.310;2024-03-02T03:25:35;90007.28;;;2.68;100.00
53300;BME280;39187;48.476;8.310;2024-03-02T03:28:00;90000.88;;;2.69;100.00
53300;BME280;39187;48.476;8.310;2024-03-02T03:30:26;90007.41;;;2.88;100.00
53300;BME280;39187;48.476;8.310;2024-03-02T03:32:52;90004.75;;;2.61;100.00
53300;BME280;39187;48.476;8.310;2024-03-02T03:35:17;90011.38;;;2.69;100.00
53300;BME280;39187;48.476;8.310;2024-03-02T03:37:43;90007.38;;;2.61;100.00
53300;BME280;39187;48.476;8.310;2024-03-02T03:40:10;90009.16;;;2.98;100.00
53300;BME280;39187;48.476;8.310;2024-03-02T03:42:38;90003.19;;;2.67;100.00
53300;BME280;39187;48.476;8.310;2024-03-02T03:45:05;90006.53;;;2.68;100.00
53300;BME280;39187;48.476;8.310;2024-03-02T03:47:31;90014.25;;;2.82;100.00
53300;BME280;39187;48.476;8.310;2024-03-02T03:49:57;90009.34;;;2.84;100.00
53300;BME280;39187;48.476;8.310;2024-03-02T03:52:23;90010.16;;;2.81;100.00
53300;BME280;39187;48.476;8.310;2024-03-02T03:54:49;90008.38;;;2.71;100.00
53300;BME280;39187;48.476;8.310;2024-03-02T03:57:14;90007.69;;;2.67;100.00
53300;BME280;39187;48.476;8.310;2024-03-02T03:59:40;90011.75;;;2.71;100.00
53300;BME280;39187;48.476;8.310;2024-03-02T04:02:05;90011.44;;;2.66;100.00
53300;BME280;39187;48.476;8.310;2024-03-02T04:04:31;90018.66;;;2.58;100.00
53300;BME280;39187;48.476;8.310;2024-03-02T04:06:56;90014.91;;;2.59;100.00
53300;BME280;39187;48.476;8.310;2024-03-02T04:09:22;90014.72;;;2.73;100.00
53300;BME280;39187;48.476;8.310;2024-03-02T04:11:47;90008.94;;;2.86;100.00
53300;BME280;39187;48.476;8.310;2024-03-02T04:14:13;90012.41;;;2.79;100.00
53300;BME280;39187;48.476;8.310;2024-03-02T04:16:38;90018.06;;;2.77;100.00
53300;BME280;39187;48.476;8.310;2024-03-02T04:19:04;90018.41;;;2.79;100.00
53300;BME280;39187;48.476;8.310;2024-03-02T04:21:30;90024.53;;;2.69;100.00
53300;BME280;39187;48.476;8.310;2024-03-02T04:23:56;90025.25;;;2.73;100.00
53300;BME280;39187;48.476;8.310;2024-03-02T04:26:24;90021.34;;;2.85;100.00
53300;BME280;39187;48.476;8.310;2024-03-02T04:28:51;90014.59;;;2.84;100.00
53300;BME280;39187;48.476;8.310;2024-03-02T04:31:16;90020.75;;;2.74;100.00
53300;BME280;39187;48.476;8.310;2024-03-02T04:33:43;90013.63;;;2.71;100.00
53300;BME280;39187;48.476;8.310;2024-03-02T04:36:08;90015.06;;;2.75;100.00
53300;BME280;39187;48.476;8.310;2024-03-02T04:38:37;90026.00;;;2.70;100.00
53300;BME280;39187;48.476;8.310;2024-03-02T04:41:04;90029.09;;;2.65;100.00
53300;BME280;39187;48.476;8.310;2024-03-02T04:43:31;90024.75;;;2.82;100.00
53300;BME280;39187;48.476;8.310;2024-03-02T04:45:58;90023.44;;;2.67;100.00
53300;BME280;39187;48.476;8.310;2024-03-02T04:48:23;90021.59;;;2.64;100.00
53300;BME280;39187;48.476;8.310;2024-03-02T04:50:49;90032.97;;;2.88;100.00
53300;BME280;39187;48.476;8.310;2024-03-02T04:53:14;90029.28;;;2.81;100.00
53300;BME280;39187;48.476;8.310;2024-03-02T04:55:40;90032.00;;;2.74;100.00
53300;BME280;39187;48.476;8.310;2024-03-02T04:58:05;90036.13;;;2.72;100.00
53300;BME280;39187;48.476;8.310;2024-03-02T05:00:32;90040.88;;;2.84;100.00
53300;BME280;39187;48.476;8.310;2024-03-02T05:02:57;90039.97;;;2.98;100.00
53300;BME280;39187;48.476;8.310;2024-03-02T05:05:23;90039.78;;;2.81;100.00
53300;BME280;39187;48.476;8.310;2024-03-02T05:07:48;90042.38;;;2.85;100.00
53300;BME280;39187;48.476;8.310;2024-03-02T05:10:14;90035.06;;;3.00;100.00
53300;BME280;39187;48.476;8.310;2024-03-02T05:12:40;90037.28;;;2.71;100.00
53300;BME280;39187;48.476;8.310;2024-03-02T05:15:12;90032.91;;;2.91;100.00
53300;BME280;39187;48.476;8.310;2024-03-02T05:17:38;90035.09;;;2.96;100.00
53300;BME280;39187;48.476;8.310;2024-03-02T05:20:05;90032.44;;;3.00;100.00
53300;BME280;39187;48.476;8.310;2024-03-02T05:22:32;90032.84;;;2.95;99.84
53300;BME280;39187;48.476;8.310;2024-03-02T05:24:59;90042.84;;;3.07;99.75
53300;BME280;39187;48.476;8.310;2024-03-02T05:27:26;90040.31;;;3.00;99.09
53300;BME280;39187;48.476;8.310;2024-03-02T05:29:52;90039.25;;;2.94;99.03
53300;BME280;39187;48.476;8.310;2024-03-02T05:32:17;90043.94;;;3.09;98.63
53300;BME280;39187;48.476;8.310;2024-03-02T05:34:42;90037.47;;;2.87;99.84
53300;BME280;39187;48.476;8.310;2024-03-02T05:37:08;90048.97;;;2.97;99.38
53300;BME280;39187;48.476;8.310;2024-03-02T05:39:33;90047.19;;;2.90;99.67
53300;BME280;39187;48.476;8.310;2024-03-02T05:41:59;90054.44;;;3.09;98.87
53300;BME280;39187;48.476;8.310;2024-03-02T05:44:24;90046.19;;;3.07;99.48
53300;BME280;39187;48.476;8.310;2024-03-02T05:46:50;90040.63;;;3.05;98.70
53300;BME280;39187;48.476;8.310;2024-03-02T05:49:15;90047.59;;;3.15;99.69
53300;BME280;39187;48.476;8.310;2024-03-02T05:51:41;90044.97;;;3.15;99.60
53300;BME280;39187;48.476;8.310;2024-03-02T05:54:06;90045.03;;;3.12;99.36
53300;BME280;39187;48.476;8.310;2024-03-02T05:56:32;90041.91;;;2.90;100.00
53300;BME280;39187;48.476;8.310;2024-03-02T05:58:58;90041.09;;;2.97;100.00
53300;BME280;39187;48.476;8.310;2024-03-02T06:01:39;90039.13;;;3.04;100.00
53300;BME280;39187;48.476;8.310;2024-03-02T06:04:05;90047.38;;;3.06;100.00
53300;BME280;39187;48.476;8.310;2024-03-02T06:06:31;90043.16;;;3.12;100.00
53300;BME280;39187;48.476;8.310;2024-03-02T06:09:01;90049.59;;;3.08;100.00
53300;BME280;39187;48.476;8.310;2024-03-02T06:11:28;90047.97;;;2.87;100.00
53300;BME280;39187;48.476;8.310;2024-03-02T06:13:53;90051.75;;;2.86;100.00
53300;BME280;39187;48.476;8.310;2024-03-02T06:16:19;90053.88;;;2.95;100.00
53300;BME280;39187;48.476;8.310;2024-03-02T06:18:44;90051.81;;;3.09;100.00
53300;BME280;39187;48.476;8.310;2024-03-02T06:21:10;90048.72;;;3.18;100.00
53300;BME280;39187;48.476;8.310;2024-03-02T06:23:35;90047.41;;;3.03;100.00
53300;BME280;39187;48.476;8.310;2024-03-02T06:26:01;90046.19;;;3.07;100.00
53300;BME280;39187;48.476;8.310;2024-03-02T06:28:28;90054.41;;;3.13;100.00
53300;BME280;39187;48.476;8.310;2024-03-02T06:30:54;90056.31;;;3.12;100.00
53300;BME280;39187;48.476;8.310;2024-03-02T06:33:19;90048.63;;;2.95;100.00
53300;BME280;39187;48.476;8.310;2024-03-02T06:35:45;90050.31;;;3.08;100.00
53300;BME280;39187;48.476;8.310;2024-03-02T06:38:10;90051.47;;;3.07;100.00
53300;BME280;39187;48.476;8.310;2024-03-02T06:40:35;90050.38;;;3.05;100.00
53300;BME280;39187;48.476;8.310;2024-03-02T06:43:03;90050.75;;;3.07;100.00
53300;BME280;39187;48.476;8.310;2024-03-02T06:45:29;90061.72;;;2.98;100.00
53300;BME280;39187;48.476;8.310;2024-03-02T06:47:56;90057.47;;;3.08;100.00
53300;BME280;39187;48.476;8.310;2024-03-02T06:50:21;90058.41;;;3.25;100.00
53300;BME280;39187;48.476;8.310;2024-03-02T06:52:47;90055.31;;;3.56;100.00
53300;BME280;39187;48.476;8.310;2024-03-02T06:55:12;90058.50;;;3.94;99.79
53300;BME280;39187;48.476;8.310;2024-03-02T06:57:38;90052.16;;;4.38;96.81
53300;BME280;39187;48.476;8.310;2024-03-02T07:00:04;90054.72;;;4.62;95.14
53300;BME280;39187;48.476;8.310;2024-03-02T07:02:30;90051.72;;;5.03;93.06
53300;BME280;39187;48.476;8.310;2024-03-02T07:04:56;90045.69;;;5.38;89.87
53300;BME280;39187;48.476;8.310;2024-03-02T07:07:21;90043.19;;;5.51;88.24
53300;BME280;39187;48.476;8.310;2024-03-02T07:09:50;90046.94;;;5.70;85.98
53300;BME280;39187;48.476;8.310;2024-03-02T07:12:15;90045.56;;;5.97;84.30
53300;BME280;39187;48.476;8.310;2024-03-02T07:14:41;90052.78;;;6.58;82.46
53300;BME280;39187;48.476;8.310;2024-03-02T07:17:22;90056.50;;;7.31;77.83
53300;BME280;39187;48.476;8.310;2024-03-02T07:19:47;90047.66;;;7.63;75.07
53300;BME280;39187;48.476;8.310;2024-03-02T07:22:13;90054.44;;;8.02;71.04
53300;BME280;39187;48.476;8.310;2024-03-02T07:24:42;90050.53;;;8.32;68.64
53300;BME280;39187;48.476;8.310;2024-03-02T07:27:09;90056.31;;;8.52;66.55
53300;BME280;39187;48.476;8.310;2024-03-02T07:29:35;90059.75;;;8.74;65.61
53300;BME280;39187;48.476;8.310;2024-03-02T07:32:00;90065.63;;;8.91;63.62
53300;BME280;39187;48.476;8.310;2024-03-02T07:34:26;90062.13;;;8.94;63.25
53300;BME280;39187;48.476;8.310;2024-03-02T07:36:52;90060.13;;;9.20;62.82
53300;BME280;39187;48.476;8.310;2024-03-02T07:39:17;90056.16;;;9.46;61.27
53300;BME280;39187;48.476;8.310;2024-03-02T07:41:45;90057.56;;;9.60;61.26
53300;BME280;39187;48.476;8.310;2024-03-02T07:44:12;90053.19;;;10.06;59.54
53300;BME280;39187;48.476;8.310;2024-03-02T07:46:41;90057.47;;;10.34;57.94
53300;BME280;39187;48.476;8.310;2024-03-02T07:49:07;90061.06;;;10.59;58.15
53300;BME280;39187;48.476;8.310;2024-03-02T07:51:33;90058.88;;;10.66;56.77
53300;BME280;39187;48.476;8.310;2024-03-02T07:53:58;90062.22;;;10.58;57.30
53300;BME280;39187;48.476;8.310;2024-03-02T07:56:24;90063.88;;;10.55;56.79
53300;BME280;39187;48.476;8.310;2024-03-02T07:58:50;90060.03;;;10.16;58.31
53300;BME280;39187;48.476;8.310;2024-03-02T08:01:15;90050.69;;;10.42;56.67
53300;BME280;39187;48.476;8.310;2024-03-02T08:03:43;90047.72;;;10.40;57.08
53300;BME280;39187;48.476;8.310;2024-03-02T08:06:16;90061.44;;;10.39;57.68
53300;BME280;39187;48.476;8.310;2024-03-02T08:08:42;90060.91;;;10.13;58.02
53300;BME280;39187;48.476;8.310;2024-03-02T08:11:08;90062.16;;;9.90;58.54
53300;BME280;39187;48.476;8.310;2024-03-02T08:13:33;90056.31;;;10.04;58.53
53300;BME280;39187;48.476;8.310;2024-03-02T08:15:58;90053.22;;;10.15;58.79
53300;BME280;39187;48.476;8.310;2024-03-02T08:18:24;90057.56;;;10.31;58.95
53300;BME280;39187;48.476;8.310;2024-03-02T08:20:50;90057.25;;;10.20;58.45
53300;BME280;39187;48.476;8.310;2024-03-02T08:23:16;90043.75;;;10.54;57.80
53300;BME280;39187;48.476;8.310;2024-03-02T08:25:42;90052.16;;;10.43;58.67
53300;BME280;39187;48.476;8.310;2024-03-02T08:28:07;90044.16;;;10.34;59.11
53300;BME280;39187;48.476;8.310;2024-03-02T08:30:33;90044.66;;;10.60;58.68
53300;BME280;39187;48.476;8.310;2024-03-02T08:32:58;90043.47;;;10.52;59.01
53300;BME280;39187;48.476;8.310;2024-03-02T08:35:23;90045.94;;;10.37;59.08
53300;BME280;39187;48.476;8.310;2024-03-02T08:37:49;90051.03;;;9.83;60.79
53300;BME280;39187;48.476;8.310;2024-03-02T08:40:15;90048.97;;;9.56;62.28
53300;BME280;39187;48.476;8.310;2024-03-02T08:42:40;90046.28;;;9.47;62.09
53300;BME280;39187;48.476;8.310;2024-03-02T08:45:07;90055.28;;;9.06;63.68
53300;BME280;39187;48.476;8.310;2024-03-02T08:47:33;90051.28;;;9.23;64.18
53300;BME280;39187;48.476;8.310;2024-03-02T08:49:59;90058.06;;;9.24;64.34
53300;BME280;39187;48.476;8.310;2024-03-02T08:52:25;90056.41;;;9.17;65.61
53300;BME280;39187;48.476;8.310;2024-03-02T08:54:51;90053.44;;;8.94;66.98
53300;BME280;39187;48.476;8.310;2024-03-02T08:57:16;90049.31;;;9.14;66.20
53300;BME280;39187;48.476;8.310;2024-03-02T08:59:42;90040.75;;;9.41;67.06
53300;BME280;39187;48.476;8.310;2024-03-02T09:02:07;90045.91;;;9.36;65.83
53300;BME280;39187;48.476;8.310;2024-03-02T09:04:33;90043.22;;;9.57;65.03
53300;BME280;39187;48.476;8.310;2024-03-02T09:06:59;90042.63;;;9.53;63.07
53300;BME280;39187;48.476;8.310;2024-03-02T09:09:24;90042.75;;;9.81;62.84
53300;BME280;39187;48.476;8.310;2024-03-02T09:11:50;90052.13;;;9.63;64.29
53300;BME280;39187;48.476;8.310;2024-03-02T09:14:15;90048.09;;;9.28;64.27
53300;BME280;39187;48.476;8.310;2024-03-02T09:16:41;90053.19;;;9.01;64.42
53300;BME280;39187;48.476;8.310;2024-03-02T09:19:06;90053.63;;;8.99;66.63
53300;BME280;39187;48.476;8.310;2024-03-02T09:21:32;90052.56;;;8.97;66.44
53300;BME280;39187;48.476;8.310;2024-03-02T09:23:58;90053.66;;;8.87;66.87
53300;BME280;39187;48.476;8.310;2024-03-02T09:26:23;90052.88;;;8.99;67.09
53300;BME280;39187;48.476;8.310;2024-03-02T09:28:50;90050.41;;;9.48;65.42
53300;BME280;39187;48.476;8.310;2024-03-02T09:31:16;90053.81;;;9.27;65.02
53300;BME280;39187;48.476;8.310;2024-03-02T09:33:41;90044.72;;;9.58;64.43
53300;BME280;39187;48.476;8.310;2024-03-02T09:36:20;90046.28;;;9.78;63.64
53300;BME280;39187;48.476;8.310;2024-03-02T09:38:46;90043.91;;;9.49;63.55
53300;BME280;39187;48.476;8.310;2024-03-02T09:41:12;90042.97;;;9.34;63.65
53300;BME280;39187;48.476;8.310;2024-03-02T09:43:38;90045.22;;;9.66;63.21
53300;BME280;39187;48.476;8.310;2024-03-02T09:46:04;90039.97;;;9.84;62.77
53300;BME280;39187;48.476;8.310;2024-03-02T09:48:30;90044.47;;;9.44;62.93
53300;BME280;39187;48.476;8.310;2024-03-02T09:50:56;90041.34;;;9.67;62.80
53300;BME280;39187;48.476;8.310;2024-03-02T09:53:23;90043.00;;;9.43;63.49
53300;BME280;39187;48.476;8.310;2024-03-02T09:55:49;90044.91;;;9.73;63.33
53300;BME280;39187;48.476;8.310;2024-03-02T09:58:14;90041.81;;;10.36;61.83
53300;BME280;39187;48.476;8.310;2024-03-02T10:00:40;90047.13;;;9.65;62.29
53300;BME280;39187;48.476;8.310;2024-03-02T10:03:11;90051.88;;;9.80;63.01
53300;BME280;39187;48.476;8.310;2024-03-02T10:05:37;90053.75;;;10.01;61.77
53300;BME280;39187;48.476;8.310;2024-03-02T10:08:03;90052.69;;;9.37;63.22
53300;BME280;39187;48.476;8.310;2024-03-02T10:10:39;90053.75;;;10.01;61.65
53300;BME280;39187;48.476;8.310;2024-03-02T10:13:06;90044.44;;;9.96;61.91
53300;BME280;39187;48.476;8.310;2024-03-02T10:15:33;90044.19;;;10.03;61.39
53300;BME280;39187;48.476;8.310;2024-03-02T10:17:59;90034.00;;;9.71;62.36
53300;BME280;39187;48.476;8.310;2024-03-02T10:20:26;90047.50;;;8.90;66.38
53300;BME280;39187;48.476;8.310;2024-03-02T10:22:53;90043.94;;;9.05;66.39
53300;BME280;39187;48.476;8.310;2024-03-02T10:25:32;90032.19;;;9.37;65.31
53300;BME280;39187;48.476;8.310;2024-03-02T10:28:00;90042.75;;;9.06;66.30
53300;BME280;39187;48.476;8.310;2024-03-02T10:30:27;90030.44;;;9.34;65.69
53300;BME280;39187;48.476;8.310;2024-03-02T10:32:56;90032.44;;;9.83;64.62
53300;BME280;39187;48.476;8.310;2024-03-02T10:35:22;90031.00;;;10.00;63.62
53300;BME280;39187;48.476;8.310;2024-03-02T10:37:52;90038.34;;;9.56;65.64
53300;BME280;39187;48.476;8.310;2024-03-02T10:40:18;90030.28;;;9.69;65.06
53300;BME280;39187;48.476;8.310;2024-03-02T10:42:44;90028.81;;;9.98;63.69
53300;BME280;39187;48.476;8.310;2024-03-02T10:45:12;90034.53;;;9.57;63.99
53300;BME280;39187;48.476;8.310;2024-03-02T10:47:38;90035.97;;;9.27;64.12
53300;BME280;39187;48.476;8.310;2024-03-02T10:50:07;90031.28;;;8.88;65.00
53300;BME280;39187;48.476;8.310;2024-03-02T10:52:39;90021.84;;;8.87;66.77
53300;BME280;39187;48.476;8.310;2024-03-02T10:55:08;90017.56;;;9.33;65.72
53300;BME280;39187;48.476;8.310;2024-03-02T10:57:43;90018.94;;;8.94;66.80
53300;BME280;39187;48.476;8.310;2024-03-02T11:00:12;90020.59;;;8.44;70.46
53300;BME280;39187;48.476;8.310;2024-03-02T11:03:04;90019.94;;;8.53;71.50
53300;BME280;39187;48.476;8.310;2024-03-02T11:05:38;90015.47;;;8.84;70.70
53300;BME280;39187;48.476;8.310;2024-03-02T11:08:08;90009.25;;;9.00;69.10
53300;BME280;39187;48.476;8.310;2024-03-02T11:10:50;90007.66;;;9.02;67.68
53300;BME280;39187;48.476;8.310;2024-03-02T11:13:22;90001.41;;;8.74;67.79
53300;BME280;39187;48.476;8.310;2024-03-02T11:15:52;89999.00;;;8.67;69.99
53300;BME280;39187;48.476;8.310;2024-03-02T11:18:21;90014.63;;;8.87;68.32
53300;BME280;39187;48.476;8.310;2024-03-02T11:20:47;90009.69;;;8.98;68.93
53300;BME280;39187;48.476;8.310;2024-03-02T11:23:13;90015.69;;;8.77;70.50
53300;BME280;39187;48.476;8.310;2024-03-02T11:25:39;90007.59;;;8.93;68.13
53300;BME280;39187;48.476;8.310;2024-03-02T11:28:07;90006.59;;;9.00;68.88
53300;BME280;39187;48.476;8.310;2024-03-02T11:33:07;90002.56;;;8.73;72.22
53300;BME280;39187;48.476;8.310;2024-03-02T11:35:36;90002.94;;;8.63;69.13
53300;BME280;39187;48.476;8.310;2024-03-02T11:38:06;89995.69;;;8.76;69.75
53300;BME280;39187;48.476;8.310;2024-03-02T11:40:32;89991.16;;;8.85;69.14
53300;BME280;39187;48.476;8.310;2024-03-02T11:42:59;89993.31;;;9.00;67.78
53300;BME280;39187;48.476;8.310;2024-03-02T11:45:26;89989.19;;;8.99;67.67
53300;BME280;39187;48.476;8.310;2024-03-02T11:47:56;89981.13;;;9.02;67.44
53300;BME280;39187;48.476;8.310;2024-03-02T11:50:42;89983.78;;;9.02;67.54
53300;BME280;39187;48.476;8.310;2024-03-02T11:53:09;89978.16;;;9.53;65.07
53300;BME280;39187;48.476;8.310;2024-03-02T11:55:36;89978.75;;;9.04;65.07
53300;BME280;39187;48.476;8.310;2024-03-02T11:58:05;89982.53;;;8.94;66.47
53300;BME280;39187;48.476;8.310;2024-03-02T12:00:31;89971.56;;;8.83;66.76
53300;BME280;39187;48.476;8.310;2024-03-02T12:03:08;89966.84;;;9.09;66.86
53300;BME280;39187;48.476;8.310;2024-03-02T12:05:34;89965.63;;;9.01;66.29
53300;BME280;39187;48.476;8.310;2024-03-02T12:08:05;89965.56;;;8.70;67.18
53300;BME280;39187;48.476;8.310;2024-03-02T12:10:32;89964.94;;;8.88;66.68
53300;BME280;39187;48.476;8.310;2024-03-02T12:13:02;89964.81;;;9.13;67.19
53300;BME280;39187;48.476;8.310;2024-03-02T12:15:29;89953.31;;;9.16;66.63
53300;BME280;39187;48.476;8.310;2024-03-02T12:18:00;89957.88;;;9.15;66.50
53300;BME280;39187;48.476;8.310;2024-03-02T12:20:27;89955.69;;;8.92;66.83
53300;BME280;39187;48.476;8.310;2024-03-02T12:22:55;89953.59;;;9.09;67.28
53300;BME280;39187;48.476;8.310;2024-03-02T12:25:23;89952.78;;;9.30;66.44
53300;BME280;39187;48.476;8.310;2024-03-02T12:27:51;89950.69;;;9.47;64.79
53300;BME280;39187;48.476;8.310;2024-03-02T12:30:18;89945.81;;;9.14;64.65
53300;BME280;39187;48.476;8.310;2024-03-02T12:32:47;89948.19;;;9.21;63.26
53300;BME280;39187;48.476;8.310;2024-03-02T12:35:13;89956.50;;;9.02;64.69
53300;BME280;39187;48.476;8.310;2024-03-02T12:37:46;89944.25;;;9.35;65.52
53300;BME280;39187;48.476;8.310;2024-03-02T12:40:12;89944.50;;;9.19;64.51
53300;BME280;39187;48.476;8.310;2024-03-02T12:42:39;89941.16;;;9.68;63.29
53300;BME280;39187;48.476;8.310;2024-03-02T12:45:06;89942.00;;;9.24;63.58
53300;BME280;39187;48.476;8.310;2024-03-02T12:47:35;89941.91;;;9.06;64.00
53300;BME280;39187;48.476;8.310;2024-03-02T12:50:02;89938.16;;;8.95;65.23
53300;BME280;39187;48.476;8.310;2024-03-02T12:52:28;89930.88;;;8.86;64.63
53300;BME280;39187;48.476;8.310;2024-03-02T12:54:54;89936.13;;;8.99;64.96
53300;BME280;39187;48.476;8.310;2024-03-02T12:57:27;89933.44;;;9.20;65.11
53300;BME280;39187;48.476;8.310;2024-03-02T13:00:00;89939.03;;;9.22;63.53
53300;BME280;39187;48.476;8.310;2024-03-02T13:02:30;89939.44;;;9.12;63.01
53300;BME280;39187;48.476;8.310;2024-03-02T13:04:57;89941.09;;;9.18;63.84
53300;BME280;39187;48.476;8.310;2024-03-02T13:07:26;89936.50;;;8.88;64.83